Aidamar — ICSJ — position and weather

sailwx.info

Track history (hours):
 
Tides and Currents Weather Stations Pressure Air Temp Water Temp Dewpoint Dewpoint Depression Visibility Wind Speed Wind Dir Waves Ship Positions

Aidamar

Last reported at 2015-Apr-28 17:33 UTC. Time now 2015-Apr-28 18:22 UTC.
Position N 49°29' E 000°06'.

Length 253 m; draft 7.3 m.

Type: Passenger vessel. MMSI: 247312900.

Date/timePositionNaut miles runAvg speedWind from/ knotsBaromVisibWave heightAir tempDewpointWater temp
2015-Apr-28 17:33N 49°29' E 000°06'0 0.0
2015-Apr-28 16:32N 49°29' E 000°06'0 0.0
2015-Apr-28 15:32N 49°29' E 000°06'0 0.0
2015-Apr-28 14:31N 49°29' E 000°06'0 0.0
2015-Apr-28 13:31N 49°29' E 000°06'0 0.0
2015-Apr-28 12:33N 49°29' E 000°06'0 0.0
2015-Apr-28 11:33N 49°29' E 000°06'0 0.0
2015-Apr-28 10:31N 49°29' E 000°06'0 0.0
2015-Apr-28 09:31N 49°29' E 000°06'0 0.0
2015-Apr-28 08:32N 49°29' E 000°06'0 0.0
2015-Apr-28 07:32N 49°29' E 000°06'0 0.0
2015-Apr-28 06:31N 49°29' E 000°06'0 0.0
2015-Apr-28 05:32N 49°29' E 000°06'1 1.1
2015-Apr-28 04:33N 49°29' E 000°05'1312.9
2015-Apr-28 03:33N 49°33' W 000°14'1514.8
2015-Apr-28 02:33N 49°46' W 000°26'3915.5
2015-Apr-28 00:04N 50°22' W 000°47'915.2
2015-Apr-27 23:29N 50°30' W 000°49'8 8.9
2015-Apr-27 22:33N 50°38' W 000°54'1211.9
2015-Apr-27 21:33N 50°46' W 001°09'9 9.2
2015-Apr-27 20:33N 50°51' W 001°20'5 4.4
2015-Apr-27 19:29N 50°54' W 001°26'0 0.0
2015-Apr-27 09:25N 50°54' W 001°26'0 0.0
2015-Apr-27 07:06N 50°54' W 001°26'1 1.8
2015-Apr-27 06:33N 50°54' W 001°25'8 8.4
2015-Apr-27 05:33N 50°47' W 001°17'1414.5
2015-Apr-27 04:33N 50°40' W 000°57'1313.1
2015-Apr-27 03:33N 50°35' W 000°38'32 9.5
2015-Apr-27 00:12N 50°35' E 000°12'6 8.6
2015-Apr-26 23:29N 50°36' E 000°22'8 8.9
2015-Apr-26 22:34N 50°39' E 000°34'9 8.8
2015-Apr-26 21:34N 50°44' E 000°46'9 8.6
2015-Apr-26 20:33N 50°48' E 000°57'1814.9
2015-Apr-26 19:19N 51°01' E 001°19'1013.6
2015-Apr-26 18:33N 51°07' E 001°32'1413.6
2015-Apr-26 17:34N 51°16' E 001°48'1211.6
2015-Apr-26 16:34N 51°26' E 001°57'1514.7
2015-Apr-26 15:33N 51°38' E 002°12'12915.7
2015-Apr-26 07:22N 53°16' E 004°28'1315.9
2015-Apr-26 06:33N 53°28' E 004°35'1616.4
2015-Apr-26 05:33N 53°35' E 005°01'1716.6
2015-Apr-26 04:34N 53°41' E 005°27'1616.4
2015-Apr-26 03:33N 53°46' E 005°53'1815.7
2015-Apr-26 02:25N 53°51' E 006°22'3514.8
2015-Apr-26 00:04N 53°59' E 007°20'714.9
2015-Apr-25 23:34N 54°01' E 007°32'1615.6
2015-Apr-25 22:33N 54°01' E 007°59'1312.8
2015-Apr-25 21:33N 53°60' E 008°20'1615.9
2015-Apr-25 20:33N 53°52' E 008°44'1515.0
2015-Apr-25 19:33N 53°53' E 009°09'1212.0
2015-Apr-25 18:33N 53°45' E 009°25'1312.5
2015-Apr-25 17:34N 53°35' E 009°37'10 9.9
2015-Apr-25 16:34N 53°33' E 009°54'2 1.6
2015-Apr-25 15:30N 53°33' E 009°56'0 0.0
2015-Apr-25 14:26N 53°33' E 009°56'0 0.0
2015-Apr-25 13:32N 53°33' E 009°56'0 0.0
2015-Apr-25 12:32N 53°33' E 009°56'0 0.0
2015-Apr-25 11:32N 53°33' E 009°56'0 0.0
2015-Apr-25 10:32N 53°33' E 009°56'0 0.0
2015-Apr-25 09:32N 53°33' E 009°56'0 0.0
2015-Apr-25 08:26N 53°33' E 009°56'0 0.0
2015-Apr-25 07:32N 53°33' E 009°56'0 0.0
2015-Apr-25 06:32N 53°33' E 009°56'0 0.0
2015-Apr-25 05:25N 53°33' E 009°56'0 0.4
2015-Apr-25 04:33N 53°33' E 009°56'9 9.4
2015-Apr-25 03:33N 53°34' E 009°40'1111.1
2015-Apr-25 02:33N 53°43' E 009°29'1211.8
2015-Apr-25 01:33N 53°52' E 009°16'1212.3
2015-Apr-25 00:34N 53°51' E 008°56'1312.9
2015-Apr-24 23:33N 53°57' E 008°37'1515.3
2015-Apr-24 22:34N 53°60' E 008°11'1515.0
2015-Apr-24 21:33N 53°56' E 007°46'1514.9
2015-Apr-24 20:33N 53°53' E 007°22'1111.0
2015-Apr-24 19:33N 53°51' E 007°03'2713.6
2015-Apr-24 17:33N 53°44' E 006°19'7 6.7
2015-Apr-24 16:33N 53°42' E 006°08'7 7.0
2015-Apr-24 15:33N 53°39' E 005°57'7 7.3
2015-Apr-24 14:33N 53°37' E 005°45'8 7.8
2015-Apr-24 13:33N 53°35' E 005°33'8 7.8
2015-Apr-24 12:33N 53°32' E 005°20'8 7.6
2015-Apr-24 11:33N 53°30' E 005°08'8 8.0
2015-Apr-24 10:33N 53°27' E 004°55'9 8.5
2015-Apr-24 09:33N 53°23' E 004°43'9 8.7
2015-Apr-24 08:33N 53°15' E 004°36'8 8.3
2015-Apr-24 07:33N 53°08' E 004°29'8 8.4
2015-Apr-24 06:33N 53°01' E 004°23'17 8.0
2015-Apr-24 04:28N 52°46' E 004°11'7 8.0
2015-Apr-24 03:33N 52°39' E 004°16'8 7.8
2015-Apr-24 02:33N 52°32' E 004°22'8 7.9
2015-Apr-24 01:33N 52°28' E 004°33'3 3.0
2015-Apr-24 00:33N 52°28' E 004°38'5 5.4
2015-Apr-23 23:34N 52°26' E 004°46'6 6.0
2015-Apr-23 22:34N 52°23' E 004°55'0 0.2
2015-Apr-23 21:33N 52°23' E 004°55'0 0.0
2015-Apr-23 20:33N 52°23' E 004°55'0 0.0
2015-Apr-23 19:30N 52°23' E 004°55'0 0.0
2015-Apr-23 18:33N 52°23' E 004°55'0 0.0
2015-Apr-23 17:33N 52°23' E 004°55'0 0.0
2015-Apr-23 16:30N 52°23' E 004°55'0 0.0
2015-Apr-23 15:33N 52°23' E 004°55'0 0.0
2015-Apr-23 14:33N 52°23' E 004°55'0 0.0
2015-Apr-23 13:33N 52°23' E 004°55'0 0.0
2015-Apr-23 12:30N 52°23' E 004°55'0 0.0
2015-Apr-23 11:33N 52°23' E 004°55'0 0.0
2015-Apr-23 10:33N 52°23' E 004°55'0 0.0
2015-Apr-23 09:33N 52°23' E 004°55'0 0.0
2015-Apr-23 08:33N 52°23' E 004°55'1 0.7
2015-Apr-23 07:34N 52°23' E 004°54'7 7.0
2015-Apr-23 06:33N 52°26' E 004°43'5 4.6
2015-Apr-23 05:34N 52°28' E 004°37'8 7.6
2015-Apr-23 04:33N 52°29' E 004°24'1515.2
2015-Apr-23 03:34N 52°28' E 003°59'9 8.9
2015-Apr-23 02:31N 52°23' E 003°46'7 7.0
2015-Apr-23 01:33N 52°19' E 003°37'1212.3
2015-Apr-23 00:33N 52°13' E 003°20'1414.3
2015-Apr-22 23:33N 52°03' E 003°03'1414.1
2015-Apr-22 22:33N 51°53' E 002°46'1414.0
2015-Apr-22 21:34N 51°43' E 002°31'1414.4
2015-Apr-22 20:33N 51°31' E 002°18'1010.3
2015-Apr-22 19:33N 51°21' E 002°20'1615.9
2015-Apr-22 18:33N 51°22' E 002°45'1414.3
2015-Apr-22 17:33N 51°24' E 003°08'4 4.0
2015-Apr-22 16:28N 51°20' E 003°12'0 0.0
2015-Apr-22 15:31N 51°20' E 003°12'0 0.0
2015-Apr-22 14:31N 51°20' E 003°12'0 0.0
2015-Apr-22 13:25N 51°20' E 003°12'0 0.0
2015-Apr-22 12:22N 51°20' E 003°12'0 0.0
2015-Apr-22 11:31N 51°20' E 003°12'0 0.0
2015-Apr-22 10:34N 51°20' E 003°12'0 0.0
2015-Apr-22 09:13N 51°20' E 003°12'0 0.0
2015-Apr-22 08:34N 51°20' E 003°12'0 0.0
2015-Apr-22 07:30N 51°20' E 003°12'0 0.0
2015-Apr-22 06:30N 51°20' E 003°12'0 0.0
2015-Apr-22 05:31N 51°20' E 003°12'8 7.8
2015-Apr-22 04:31N 51°24' E 003°02'1313.1
2015-Apr-22 03:33N 51°21' E 002°42'2020.0
2015-Apr-22 02:33N 51°15' E 002°11'2121.3
2015-Apr-22 01:33N 51°04' E 001°42'2020.4
2015-Apr-22 00:33N 50°47' E 001°25'7417.2
2015-Apr-21 20:14N 49°52' E 000°06'1014.2
2015-Apr-21 19:33N 49°44' W 000°01'1312.9
2015-Apr-21 18:34N 49°31' W 000°03'7 6.7
2015-Apr-21 17:34N 49°29' E 000°06'0 0.0
2015-Apr-21 16:32N 49°29' E 000°06'0 0.0
2015-Apr-21 15:33N 49°29' E 000°06'0 0.0
2015-Apr-21 14:30N 49°29' E 000°06'0 0.0
2015-Apr-21 13:33N 49°29' E 000°06'0 0.0
2015-Apr-21 12:31N 49°29' E 000°06'0 0.0
2015-Apr-21 11:33N 49°29' E 000°06'0 0.0
2015-Apr-21 10:32N 49°29' E 000°06'0 0.0
2015-Apr-21 09:31N 49°29' E 000°06'0 0.0
2015-Apr-21 08:33N 49°29' E 000°06'0 0.0
2015-Apr-21 07:32N 49°29' E 000°06'0 0.0
2015-Apr-21 06:31N 49°29' E 000°06'0 0.0
2015-Apr-21 05:33N 49°29' E 000°06'2 2.0
2015-Apr-21 04:33N 49°30' E 000°03'1212.2
2015-Apr-21 03:33N 49°33' W 000°15'1111.5
2015-Apr-21 02:33N 49°43' W 000°24'7 7.3
2015-Apr-21 01:33N 49°49' W 000°29'10 9.8
2015-Apr-21 00:34N 49°59' W 000°34'2813.9
2015-Apr-20 22:33N 50°25' W 000°48'1615.7
2015-Apr-20 21:34N 50°40' W 000°56'1413.5
2015-Apr-20 20:33N 50°46' W 001°15'9 9.0
2015-Apr-20 19:32N 50°53' W 001°24'0 0.2
2015-Apr-20 18:28N 50°53' W 001°24'0 0.0
2015-Apr-20 17:22N 50°53' W 001°24'0 0.0
2015-Apr-20 16:28N 50°53' W 001°24'0 0.0
2015-Apr-20 15:31N 50°53' W 001°24'0 0.0
2015-Apr-20 14:31N 50°53' W 001°24'0 0.0
2015-Apr-20 13:31N 50°53' W 001°24'0 0.0
2015-Apr-20 12:13N 50°53' W 001°24'0 0.0
2015-Apr-20 11:31N 50°53' W 001°24'0 0.0
2015-Apr-20 10:31N 50°53' W 001°24'0 0.0
2015-Apr-20 09:28N 50°53' W 001°24'0 0.0
2015-Apr-20 08:31N 50°53' W 001°24'0 0.0
2015-Apr-20 07:31N 50°53' W 001°24'2 1.7
2015-Apr-20 06:33N 50°52' W 001°23'9 9.1
2015-Apr-20 05:33N 50°46' W 001°12'1212.5
2015-Apr-20 04:33N 50°39' W 000°55'1414.4
2015-Apr-20 03:33N 50°35' W 000°34'3210.1
2015-Apr-20 00:25N 50°35' E 000°16'7 8.2
2015-Apr-19 23:33N 50°38' E 000°26'7 7.3
2015-Apr-19 22:33N 50°40' E 000°37'7 7.3
2015-Apr-19 21:34N 50°44' E 000°47'1615.2
2015-Apr-19 20:31N 50°53' E 001°08'1515.6
2015-Apr-19 19:33N 51°04' E 001°24'1110.7
2015-Apr-19 18:34N 51°10' E 001°38'1716.7
2015-Apr-19 17:33N 51°23' E 001°53'1615.5
2015-Apr-19 16:33N 51°36' E 002°08'1514.9
2015-Apr-19 15:32N 51°47' E 002°24'11015.3
2015-Apr-19 08:20N 53°09' E 004°25'1215.1
2015-Apr-19 07:30N 53°21' E 004°33'1313.7
2015-Apr-19 06:34N 53°31' E 004°45'1413.8
2015-Apr-19 05:33N 53°37' E 005°07'1414.3
2015-Apr-19 04:34N 53°41' E 005°30'1615.8
2015-Apr-19 03:33N 53°46' E 005°55'1716.5
2015-Apr-19 02:31N 53°51' E 006°23'2820.4
2015-Apr-19 01:10N 53°57' E 007°09'5 7.5
2015-Apr-19 00:26N 53°58' E 007°18'1315.1
2015-Apr-18 23:33N 54°02' E 007°39'1414.4
2015-Apr-18 22:33N 54°01' E 008°04'1312.9
2015-Apr-18 21:33N 53°59' E 008°25'1111.3
2015-Apr-18 20:33N 53°54' E 008°42'1313.1
2015-Apr-18 19:33N 53°52' E 009°04'1312.6
2015-Apr-18 18:34N 53°47' E 009°23'1413.7
2015-Apr-18 17:33N 53°36' E 009°36'  
Track history (hours):
 
Tides and Currents Weather Stations Pressure Air Temp Water Temp Dewpoint Dewpoint Depression Visibility Wind Speed Wind Dir Waves Ship Positions

Aidamar

Last reported at 2015-Apr-28 17:33 UTC. Time now 2015-Apr-28 18:22 UTC.
Position N 49°29' E 000°06'.

Length 253 m; draft 7.3 m.

Type: Passenger vessel. MMSI: 247312900.

Date/timePositionNaut miles runAvg speedWind from/ knotsBaromVisibWave heightAir tempDewpointWater temp
2015-Apr-28 17:33N 49°29' E 000°06'0 0.0
2015-Apr-28 16:32N 49°29' E 000°06'0 0.0
2015-Apr-28 15:32N 49°29' E 000°06'0 0.0
2015-Apr-28 14:31N 49°29' E 000°06'0 0.0
2015-Apr-28 13:31N 49°29' E 000°06'0 0.0
2015-Apr-28 12:33N 49°29' E 000°06'0 0.0
2015-Apr-28 11:33N 49°29' E 000°06'0 0.0
2015-Apr-28 10:31N 49°29' E 000°06'0 0.0
2015-Apr-28 09:31N 49°29' E 000°06'0 0.0
2015-Apr-28 08:32N 49°29' E 000°06'0 0.0
2015-Apr-28 07:32N 49°29' E 000°06'0 0.0
2015-Apr-28 06:31N 49°29' E 000°06'0 0.0
2015-Apr-28 05:32N 49°29' E 000°06'1 1.1
2015-Apr-28 04:33N 49°29' E 000°05'1312.9
2015-Apr-28 03:33N 49°33' W 000°14'1514.8
2015-Apr-28 02:33N 49°46' W 000°26'3915.5
2015-Apr-28 00:04N 50°22' W 000°47'915.2
2015-Apr-27 23:29N 50°30' W 000°49'8 8.9
2015-Apr-27 22:33N 50°38' W 000°54'1211.9
2015-Apr-27 21:33N 50°46' W 001°09'9 9.2
2015-Apr-27 20:33N 50°51' W 001°20'5 4.4
2015-Apr-27 19:29N 50°54' W 001°26'0 0.0
2015-Apr-27 09:25N 50°54' W 001°26'0 0.0
2015-Apr-27 07:06N 50°54' W 001°26'1 1.8
2015-Apr-27 06:33N 50°54' W 001°25'8 8.4
2015-Apr-27 05:33N 50°47' W 001°17'1414.5
2015-Apr-27 04:33N 50°40' W 000°57'1313.1
2015-Apr-27 03:33N 50°35' W 000°38'32 9.5
2015-Apr-27 00:12N 50°35' E 000°12'6 8.6
2015-Apr-26 23:29N 50°36' E 000°22'8 8.9
2015-Apr-26 22:34N 50°39' E 000°34'9 8.8
2015-Apr-26 21:34N 50°44' E 000°46'9 8.6
2015-Apr-26 20:33N 50°48' E 000°57'1814.9
2015-Apr-26 19:19N 51°01' E 001°19'1013.6
2015-Apr-26 18:33N 51°07' E 001°32'1413.6
2015-Apr-26 17:34N 51°16' E 001°48'1211.6
2015-Apr-26 16:34N 51°26' E 001°57'1514.7
2015-Apr-26 15:33N 51°38' E 002°12'12915.7
2015-Apr-26 07:22N 53°16' E 004°28'1315.9
2015-Apr-26 06:33N 53°28' E 004°35'1616.4
2015-Apr-26 05:33N 53°35' E 005°01'1716.6
2015-Apr-26 04:34N 53°41' E 005°27'1616.4
2015-Apr-26 03:33N 53°46' E 005°53'1815.7
2015-Apr-26 02:25N 53°51' E 006°22'3514.8
2015-Apr-26 00:04N 53°59' E 007°20'714.9
2015-Apr-25 23:34N 54°01' E 007°32'1615.6
2015-Apr-25 22:33N 54°01' E 007°59'1312.8
2015-Apr-25 21:33N 53°60' E 008°20'1615.9
2015-Apr-25 20:33N 53°52' E 008°44'1515.0
2015-Apr-25 19:33N 53°53' E 009°09'1212.0
2015-Apr-25 18:33N 53°45' E 009°25'1312.5
2015-Apr-25 17:34N 53°35' E 009°37'10 9.9
2015-Apr-25 16:34N 53°33' E 009°54'2 1.6
2015-Apr-25 15:30N 53°33' E 009°56'0 0.0
2015-Apr-25 14:26N 53°33' E 009°56'0 0.0
2015-Apr-25 13:32N 53°33' E 009°56'0 0.0
2015-Apr-25 12:32N 53°33' E 009°56'0 0.0
2015-Apr-25 11:32N 53°33' E 009°56'0 0.0
2015-Apr-25 10:32N 53°33' E 009°56'0 0.0
2015-Apr-25 09:32N 53°33' E 009°56'0 0.0
2015-Apr-25 08:26N 53°33' E 009°56'0 0.0
2015-Apr-25 07:32N 53°33' E 009°56'0 0.0
2015-Apr-25 06:32N 53°33' E 009°56'0 0.0
2015-Apr-25 05:25N 53°33' E 009°56'0 0.4
2015-Apr-25 04:33N 53°33' E 009°56'9 9.4
2015-Apr-25 03:33N 53°34' E 009°40'1111.1
2015-Apr-25 02:33N 53°43' E 009°29'1211.8
2015-Apr-25 01:33N 53°52' E 009°16'1212.3
2015-Apr-25 00:34N 53°51' E 008°56'1312.9
2015-Apr-24 23:33N 53°57' E 008°37'1515.3
2015-Apr-24 22:34N 53°60' E 008°11'1515.0
2015-Apr-24 21:33N 53°56' E 007°46'1514.9
2015-Apr-24 20:33N 53°53' E 007°22'1111.0
2015-Apr-24 19:33N 53°51' E 007°03'2713.6
2015-Apr-24 17:33N 53°44' E 006°19'7 6.7
2015-Apr-24 16:33N 53°42' E 006°08'7 7.0
2015-Apr-24 15:33N 53°39' E 005°57'7 7.3
2015-Apr-24 14:33N 53°37' E 005°45'8 7.8
2015-Apr-24 13:33N 53°35' E 005°33'8 7.8
2015-Apr-24 12:33N 53°32' E 005°20'8 7.6
2015-Apr-24 11:33N 53°30' E 005°08'8 8.0
2015-Apr-24 10:33N 53°27' E 004°55'9 8.5
2015-Apr-24 09:33N 53°23' E 004°43'9 8.7
2015-Apr-24 08:33N 53°15' E 004°36'8 8.3
2015-Apr-24 07:33N 53°08' E 004°29'8 8.4
2015-Apr-24 06:33N 53°01' E 004°23'17 8.0
2015-Apr-24 04:28N 52°46' E 004°11'7 8.0
2015-Apr-24 03:33N 52°39' E 004°16'8 7.8
2015-Apr-24 02:33N 52°32' E 004°22'8 7.9
2015-Apr-24 01:33N 52°28' E 004°33'3 3.0
2015-Apr-24 00:33N 52°28' E 004°38'5 5.4
2015-Apr-23 23:34N 52°26' E 004°46'6 6.0
2015-Apr-23 22:34N 52°23' E 004°55'0 0.2
2015-Apr-23 21:33N 52°23' E 004°55'0 0.0
2015-Apr-23 20:33N 52°23' E 004°55'0 0.0
2015-Apr-23 19:30N 52°23' E 004°55'0 0.0
2015-Apr-23 18:33N 52°23' E 004°55'0 0.0
2015-Apr-23 17:33N 52°23' E 004°55'0 0.0
2015-Apr-23 16:30N 52°23' E 004°55'0 0.0
2015-Apr-23 15:33N 52°23' E 004°55'0 0.0
2015-Apr-23 14:33N 52°23' E 004°55'0 0.0
2015-Apr-23 13:33N 52°23' E 004°55'0 0.0
2015-Apr-23 12:30N 52°23' E 004°55'0 0.0
2015-Apr-23 11:33N 52°23' E 004°55'0 0.0
2015-Apr-23 10:33N 52°23' E 004°55'0 0.0
2015-Apr-23 09:33N 52°23' E 004°55'0 0.0
2015-Apr-23 08:33N 52°23' E 004°55'1 0.7
2015-Apr-23 07:34N 52°23' E 004°54'7 7.0
2015-Apr-23 06:33N 52°26' E 004°43'5 4.6
2015-Apr-23 05:34N 52°28' E 004°37'8 7.6
2015-Apr-23 04:33N 52°29' E 004°24'1515.2
2015-Apr-23 03:34N 52°28' E 003°59'9 8.9
2015-Apr-23 02:31N 52°23' E 003°46'7 7.0
2015-Apr-23 01:33N 52°19' E 003°37'1212.3
2015-Apr-23 00:33N 52°13' E 003°20'1414.3
2015-Apr-22 23:33N 52°03' E 003°03'1414.1
2015-Apr-22 22:33N 51°53' E 002°46'1414.0
2015-Apr-22 21:34N 51°43' E 002°31'1414.4
2015-Apr-22 20:33N 51°31' E 002°18'1010.3
2015-Apr-22 19:33N 51°21' E 002°20'1615.9
2015-Apr-22 18:33N 51°22' E 002°45'1414.3
2015-Apr-22 17:33N 51°24' E 003°08'4 4.0
2015-Apr-22 16:28N 51°20' E 003°12'0 0.0
2015-Apr-22 15:31N 51°20' E 003°12'0 0.0
2015-Apr-22 14:31N 51°20' E 003°12'0 0.0
2015-Apr-22 13:25N 51°20' E 003°12'0 0.0
2015-Apr-22 12:22N 51°20' E 003°12'0 0.0
2015-Apr-22 11:31N 51°20' E 003°12'0 0.0
2015-Apr-22 10:34N 51°20' E 003°12'0 0.0
2015-Apr-22 09:13N 51°20' E 003°12'0 0.0
2015-Apr-22 08:34N 51°20' E 003°12'0 0.0
2015-Apr-22 07:30N 51°20' E 003°12'0 0.0
2015-Apr-22 06:30N 51°20' E 003°12'0 0.0
2015-Apr-22 05:31N 51°20' E 003°12'8 7.8
2015-Apr-22 04:31N 51°24' E 003°02'1313.1
2015-Apr-22 03:33N 51°21' E 002°42'2020.0
2015-Apr-22 02:33N 51°15' E 002°11'2121.3
2015-Apr-22 01:33N 51°04' E 001°42'2020.4
2015-Apr-22 00:33N 50°47' E 001°25'7417.2
2015-Apr-21 20:14N 49°52' E 000°06'1014.2
2015-Apr-21 19:33N 49°44' W 000°01'1312.9
2015-Apr-21 18:34N 49°31' W 000°03'7 6.7
2015-Apr-21 17:34N 49°29' E 000°06'0 0.0
2015-Apr-21 16:32N 49°29' E 000°06'0 0.0
2015-Apr-21 15:33N 49°29' E 000°06'0 0.0
2015-Apr-21 14:30N 49°29' E 000°06'0 0.0
2015-Apr-21 13:33N 49°29' E 000°06'0 0.0
2015-Apr-21 12:31N 49°29' E 000°06'0 0.0
2015-Apr-21 11:33N 49°29' E 000°06'0 0.0
2015-Apr-21 10:32N 49°29' E 000°06'0 0.0
2015-Apr-21 09:31N 49°29' E 000°06'0 0.0
2015-Apr-21 08:33N 49°29' E 000°06'0 0.0
2015-Apr-21 07:32N 49°29' E 000°06'0 0.0
2015-Apr-21 06:31N 49°29' E 000°06'0 0.0
2015-Apr-21 05:33N 49°29' E 000°06'2 2.0
2015-Apr-21 04:33N 49°30' E 000°03'1212.2
2015-Apr-21 03:33N 49°33' W 000°15'1111.5
2015-Apr-21 02:33N 49°43' W 000°24'7 7.3
2015-Apr-21 01:33N 49°49' W 000°29'10 9.8
2015-Apr-21 00:34N 49°59' W 000°34'2813.9
2015-Apr-20 22:33N 50°25' W 000°48'1615.7
2015-Apr-20 21:34N 50°40' W 000°56'1413.5
2015-Apr-20 20:33N 50°46' W 001°15'9 9.0
2015-Apr-20 19:32N 50°53' W 001°24'0 0.2
2015-Apr-20 18:28N 50°53' W 001°24'0 0.0
2015-Apr-20 17:22N 50°53' W 001°24'0 0.0
2015-Apr-20 16:28N 50°53' W 001°24'0 0.0
2015-Apr-20 15:31N 50°53' W 001°24'0 0.0
2015-Apr-20 14:31N 50°53' W 001°24'0 0.0
2015-Apr-20 13:31N 50°53' W 001°24'0 0.0
2015-Apr-20 12:13N 50°53' W 001°24'0 0.0
2015-Apr-20 11:31N 50°53' W 001°24'0 0.0
2015-Apr-20 10:31N 50°53' W 001°24'0 0.0
2015-Apr-20 09:28N 50°53' W 001°24'0 0.0
2015-Apr-20 08:31N 50°53' W 001°24'0 0.0
2015-Apr-20 07:31N 50°53' W 001°24'2 1.7
2015-Apr-20 06:33N 50°52' W 001°23'9 9.1
2015-Apr-20 05:33N 50°46' W 001°12'1212.5
2015-Apr-20 04:33N 50°39' W 000°55'1414.4
2015-Apr-20 03:33N 50°35' W 000°34'3210.1
2015-Apr-20 00:25N 50°35' E 000°16'7 8.2
2015-Apr-19 23:33N 50°38' E 000°26'7 7.3
2015-Apr-19 22:33N 50°40' E 000°37'7 7.3
2015-Apr-19 21:34N 50°44' E 000°47'1615.2
2015-Apr-19 20:31N 50°53' E 001°08'1515.6
2015-Apr-19 19:33N 51°04' E 001°24'1110.7
2015-Apr-19 18:34N 51°10' E 001°38'1716.7
2015-Apr-19 17:33N 51°23' E 001°53'1615.5
2015-Apr-19 16:33N 51°36' E 002°08'1514.9
2015-Apr-19 15:32N 51°47' E 002°24'11015.3
2015-Apr-19 08:20N 53°09' E 004°25'1215.1
2015-Apr-19 07:30N 53°21' E 004°33'1313.7
2015-Apr-19 06:34N 53°31' E 004°45'1413.8
2015-Apr-19 05:33N 53°37' E 005°07'1414.3
2015-Apr-19 04:34N 53°41' E 005°30'1615.8
2015-Apr-19 03:33N 53°46' E 005°55'1716.5
2015-Apr-19 02:31N 53°51' E 006°23'2820.4
2015-Apr-19 01:10N 53°57' E 007°09'5 7.5
2015-Apr-19 00:26N 53°58' E 007°18'1315.1
2015-Apr-18 23:33N 54°02' E 007°39'1414.4
2015-Apr-18 22:33N 54°01' E 008°04'1312.9
2015-Apr-18 21:33N 53°59' E 008°25'1111.3
2015-Apr-18 20:33N 53°54' E 008°42'1313.1
2015-Apr-18 19:33N 53°52' E 009°04'1312.6
2015-Apr-18 18:34N 53°47' E 009°23'1413.7
2015-Apr-18 17:33N 53°36' E 009°36'  

Dump ship's entire track history